sensor_id;sensor_type;location;lat;lon;timestamp;P1;durP1;ratioP1;P2;durP2;ratioP2
65691;SDS011;52411;52.716;6.696;2022-12-18T00:00:39;108.50;;;34.60;;
65691;SDS011;52411;52.716;6.696;2022-12-18T00:03:06;96.68;;;29.75;;
65691;SDS011;52411;52.716;6.696;2022-12-18T00:05:32;104.45;;;32.60;;
65691;SDS011;52411;52.716;6.696;2022-12-18T00:07:57;102.88;;;32.25;;
65691;SDS011;52411;52.716;6.696;2022-12-18T00:10:23;97.72;;;30.52;;
65691;SDS011;52411;52.716;6.696;2022-12-18T00:12:49;98.60;;;32.17;;
65691;SDS011;52411;52.716;6.696;2022-12-18T00:15:14;101.38;;;32.50;;
65691;SDS011;52411;52.716;6.696;2022-12-18T00:17:40;109.32;;;34.40;;
65691;SDS011;52411;52.716;6.696;2022-12-18T00:20:06;107.82;;;33.13;;
65691;SDS011;52411;52.716;6.696;2022-12-18T00:22:32;105.60;;;33.80;;
65691;SDS011;52411;52.716;6.696;2022-12-18T00:24:57;103.80;;;33.00;;
65691;SDS011;52411;52.716;6.696;2022-12-18T00:27:23;109.97;;;35.65;;
65691;SDS011;52411;52.716;6.696;2022-12-18T00:29:49;101.25;;;32.53;;
65691;SDS011;52411;52.716;6.696;2022-12-18T00:32:14;96.25;;;31.15;;
65691;SDS011;52411;52.716;6.696;2022-12-18T00:34:40;108.22;;;36.15;;
65691;SDS011;52411;52.716;6.696;2022-12-18T00:37:05;107.68;;;34.47;;
65691;SDS011;52411;52.716;6.696;2022-12-18T00:39:31;109.28;;;33.88;;
65691;SDS011;52411;52.716;6.696;2022-12-18T00:41:56;106.38;;;34.47;;
65691;SDS011;52411;52.716;6.696;2022-12-18T00:44:41;103.45;;;34.22;;
65691;SDS011;52411;52.716;6.696;2022-12-18T00:47:06;103.45;;;34.13;;
65691;SDS011;52411;52.716;6.696;2022-12-18T00:49:32;107.72;;;34.22;;
65691;SDS011;52411;52.716;6.696;2022-12-18T00:51:57;101.20;;;33.00;;
65691;SDS011;52411;52.716;6.696;2022-12-18T00:54:23;104.75;;;33.78;;
65691;SDS011;52411;52.716;6.696;2022-12-18T00:56:48;101.72;;;32.08;;
65691;SDS011;52411;52.716;6.696;2022-12-18T00:59:14;109.78;;;33.53;;
65691;SDS011;52411;52.716;6.696;2022-12-18T01:01:41;113.28;;;35.60;;
65691;SDS011;52411;52.716;6.696;2022-12-18T01:04:07;116.78;;;35.60;;
65691;SDS011;52411;52.716;6.696;2022-12-18T01:06:34;112.93;;;35.50;;
65691;SDS011;52411;52.716;6.696;2022-12-18T01:09:00;115.70;;;35.17;;
65691;SDS011;52411;52.716;6.696;2022-12-18T01:11:26;109.25;;;35.10;;
65691;SDS011;52411;52.716;6.696;2022-12-18T01:13:52;106.68;;;33.97;;
65691;SDS011;52411;52.716;6.696;2022-12-18T01:16:18;107.60;;;33.70;;
65691;SDS011;52411;52.716;6.696;2022-12-18T01:18:44;94.05;;;31.23;;
65691;SDS011;52411;52.716;6.696;2022-12-18T01:21:11;99.43;;;31.70;;
65691;SDS011;52411;52.716;6.696;2022-12-18T01:23:39;98.90;;;32.13;;
65691;SDS011;52411;52.716;6.696;2022-12-18T01:26:08;101.30;;;31.58;;
65691;SDS011;52411;52.716;6.696;2022-12-18T01:28:36;93.75;;;30.58;;
65691;SDS011;52411;52.716;6.696;2022-12-18T01:31:24;96.93;;;30.85;;
65691;SDS011;52411;52.716;6.696;2022-12-18T01:33:52;111.43;;;34.00;;
65691;SDS011;52411;52.716;6.696;2022-12-18T01:36:20;100.22;;;32.00;;
65691;SDS011;52411;52.716;6.696;2022-12-18T01:38:48;104.20;;;31.73;;
65691;SDS011;52411;52.716;6.696;2022-12-18T01:41:15;99.35;;;31.20;;
65691;SDS011;52411;52.716;6.696;2022-12-18T01:46:15;95.05;;;30.45;;
65691;SDS011;52411;52.716;6.696;2022-12-18T01:48:42;98.28;;;29.65;;
65691;SDS011;52411;52.716;6.696;2022-12-18T01:51:10;88.30;;;30.70;;
65691;SDS011;52411;52.716;6.696;2022-12-18T01:53:37;94.03;;;30.15;;
65691;SDS011;52411;52.716;6.696;2022-12-18T01:56:05;89.93;;;29.02;;
65691;SDS011;52411;52.716;6.696;2022-12-18T01:58:44;93.43;;;30.83;;
65691;SDS011;52411;52.716;6.696;2022-12-18T02:01:26;91.68;;;31.42;;
65691;SDS011;52411;52.716;6.696;2022-12-18T02:03:52;99.47;;;33.97;;
65691;SDS011;52411;52.716;6.696;2022-12-18T02:06:29;90.95;;;29.05;;
65691;SDS011;52411;52.716;6.696;2022-12-18T02:09:11;92.18;;;31.98;;
65691;SDS011;52411;52.716;6.696;2022-12-18T02:11:49;94.50;;;30.70;;
65691;SDS011;52411;52.716;6.696;2022-12-18T02:14:38;87.00;;;29.98;;
65691;SDS011;52411;52.716;6.696;2022-12-18T02:17:36;94.68;;;29.52;;
65691;SDS011;52411;52.716;6.696;2022-12-18T02:28:22;92.50;;;30.25;;
65691;SDS011;52411;52.716;6.696;2022-12-18T02:30:51;84.32;;;30.70;;
65691;SDS011;52411;52.716;6.696;2022-12-18T02:33:21;87.47;;;31.25;;
65691;SDS011;52411;52.716;6.696;2022-12-18T02:35:47;88.82;;;31.52;;
65691;SDS011;52411;52.716;6.696;2022-12-18T02:38:15;86.90;;;30.10;;
65691;SDS011;52411;52.716;6.696;2022-12-18T02:40:41;101.32;;;31.38;;
65691;SDS011;52411;52.716;6.696;2022-12-18T02:43:12;89.22;;;30.52;;
65691;SDS011;52411;52.716;6.696;2022-12-18T02:45:50;91.80;;;30.63;;
65691;SDS011;52411;52.716;6.696;2022-12-18T02:48:22;87.25;;;29.33;;
65691;SDS011;52411;52.716;6.696;2022-12-18T02:51:10;82.50;;;27.30;;
65691;SDS011;52411;52.716;6.696;2022-12-18T02:53:50;74.60;;;27.65;;
65691;SDS011;52411;52.716;6.696;2022-12-18T02:56:21;77.93;;;27.45;;
65691;SDS011;52411;52.716;6.696;2022-12-18T03:04:00;80.10;;;27.08;;
65691;SDS011;52411;52.716;6.696;2022-12-18T03:06:35;68.25;;;27.50;;
65691;SDS011;52411;52.716;6.696;2022-12-18T03:09:13;72.10;;;27.00;;
65691;SDS011;52411;52.716;6.696;2022-12-18T03:11:43;69.38;;;25.88;;
65691;SDS011;52411;52.716;6.696;2022-12-18T03:14:33;71.63;;;25.95;;
65691;SDS011;52411;52.716;6.696;2022-12-18T03:17:02;69.85;;;26.35;;
65691;SDS011;52411;52.716;6.696;2022-12-18T03:19:31;70.63;;;26.77;;
65691;SDS011;52411;52.716;6.696;2022-12-18T03:21:58;69.95;;;25.80;;
65691;SDS011;52411;52.716;6.696;2022-12-18T03:24:27;66.93;;;26.25;;
65691;SDS011;52411;52.716;6.696;2022-12-18T03:26:58;69.78;;;27.05;;
65691;SDS011;52411;52.716;6.696;2022-12-18T03:29:32;66.50;;;25.52;;
65691;SDS011;52411;52.716;6.696;2022-12-18T03:32:12;78.78;;;28.40;;
65691;SDS011;52411;52.716;6.696;2022-12-18T03:34:42;85.55;;;28.70;;
65691;SDS011;52411;52.716;6.696;2022-12-18T03:37:12;70.45;;;28.73;;
65691;SDS011;52411;52.716;6.696;2022-12-18T03:39:38;70.50;;;25.67;;
65691;SDS011;52411;52.716;6.696;2022-12-18T03:50:32;75.00;;;26.70;;
65691;SDS011;52411;52.716;6.696;2022-12-18T03:53:23;75.55;;;25.63;;
65691;SDS011;52411;52.716;6.696;2022-12-18T03:55:53;73.10;;;24.88;;
65691;SDS011;52411;52.716;6.696;2022-12-18T03:58:24;71.33;;;24.83;;
65691;SDS011;52411;52.716;6.696;2022-12-18T04:00:52;73.97;;;25.27;;
65691;SDS011;52411;52.716;6.696;2022-12-18T04:03:21;59.97;;;22.03;;
65691;SDS011;52411;52.716;6.696;2022-12-18T04:05:49;71.63;;;25.30;;
65691;SDS011;52411;52.716;6.696;2022-12-18T04:08:17;76.33;;;25.30;;
65691;SDS011;52411;52.716;6.696;2022-12-18T04:10:43;68.43;;;25.77;;
65691;SDS011;52411;52.716;6.696;2022-12-18T04:13:09;68.47;;;25.07;;
65691;SDS011;52411;52.716;6.696;2022-12-18T04:15:35;66.53;;;25.10;;
65691;SDS011;52411;52.716;6.696;2022-12-18T04:18:01;61.47;;;24.50;;
65691;SDS011;52411;52.716;6.696;2022-12-18T04:20:27;65.87;;;24.67;;
65691;SDS011;52411;52.716;6.696;2022-12-18T04:22:53;65.00;;;25.73;;
65691;SDS011;52411;52.716;6.696;2022-12-18T04:25:18;58.17;;;22.87;;
65691;SDS011;52411;52.716;6.696;2022-12-18T04:27:44;58.90;;;23.50;;
65691;SDS011;52411;52.716;6.696;2022-12-18T04:30:09;59.20;;;22.83;;
65691;SDS011;52411;52.716;6.696;2022-12-18T04:32:35;63.13;;;23.90;;
65691;SDS011;52411;52.716;6.696;2022-12-18T04:35:01;63.77;;;25.23;;
65691;SDS011;52411;52.716;6.696;2022-12-18T04:37:29;69.47;;;24.50;;
65691;SDS011;52411;52.716;6.696;2022-12-18T04:39:54;65.03;;;23.90;;
65691;SDS011;52411;52.716;6.696;2022-12-18T04:42:20;60.17;;;22.97;;
65691;SDS011;52411;52.716;6.696;2022-12-18T04:44:46;62.67;;;22.47;;
65691;SDS011;52411;52.716;6.696;2022-12-18T04:47:11;59.87;;;23.13;;
65691;SDS011;52411;52.716;6.696;2022-12-18T04:49:37;60.13;;;22.50;;
65691;SDS011;52411;52.716;6.696;2022-12-18T04:52:03;56.27;;;22.13;;
65691;SDS011;52411;52.716;6.696;2022-12-18T04:54:28;58.47;;;23.20;;
65691;SDS011;52411;52.716;6.696;2022-12-18T04:56:54;60.07;;;20.90;;
65691;SDS011;52411;52.716;6.696;2022-12-18T04:59:19;51.83;;;21.53;;
65691;SDS011;52411;52.716;6.696;2022-12-18T05:01:45;53.43;;;20.73;;
65691;SDS011;52411;52.716;6.696;2022-12-18T05:04:11;56.20;;;21.30;;
65691;SDS011;52411;52.716;6.696;2022-12-18T05:06:36;48.90;;;21.00;;
65691;SDS011;52411;52.716;6.696;2022-12-18T05:09:02;61.73;;;21.57;;
65691;SDS011;52411;52.716;6.696;2022-12-18T05:11:28;56.00;;;22.93;;
65691;SDS011;52411;52.716;6.696;2022-12-18T05:13:56;62.40;;;22.60;;
65691;SDS011;52411;52.716;6.696;2022-12-18T05:16:22;54.97;;;21.23;;
65691;SDS011;52411;52.716;6.696;2022-12-18T05:18:47;52.20;;;20.30;;
65691;SDS011;52411;52.716;6.696;2022-12-18T05:21:13;57.43;;;22.07;;
65691;SDS011;52411;52.716;6.696;2022-12-18T05:23:39;58.57;;;22.50;;
65691;SDS011;52411;52.716;6.696;2022-12-18T05:26:05;53.13;;;20.97;;
65691;SDS011;52411;52.716;6.696;2022-12-18T05:28:32;50.23;;;20.67;;
65691;SDS011;52411;52.716;6.696;2022-12-18T05:31:00;51.43;;;19.70;;
65691;SDS011;52411;52.716;6.696;2022-12-18T05:33:29;55.83;;;21.47;;
65691;SDS011;52411;52.716;6.696;2022-12-18T05:35:57;52.73;;;20.27;;
65691;SDS011;52411;52.716;6.696;2022-12-18T05:38:25;55.50;;;20.67;;
65691;SDS011;52411;52.716;6.696;2022-12-18T05:40:51;53.93;;;20.87;;
65691;SDS011;52411;52.716;6.696;2022-12-18T05:43:18;46.93;;;18.60;;
65691;SDS011;52411;52.716;6.696;2022-12-18T05:45:44;53.07;;;20.33;;
65691;SDS011;52411;52.716;6.696;2022-12-18T05:48:13;55.17;;;21.43;;
65691;SDS011;52411;52.716;6.696;2022-12-18T05:50:40;49.97;;;19.37;;
65691;SDS011;52411;52.716;6.696;2022-12-18T05:53:07;47.40;;;18.67;;
65691;SDS011;52411;52.716;6.696;2022-12-18T05:55:33;48.60;;;19.80;;
65691;SDS011;52411;52.716;6.696;2022-12-18T05:58:04;49.40;;;20.25;;
65691;SDS011;52411;52.716;6.696;2022-12-18T06:00:31;46.30;;;20.83;;
65691;SDS011;52411;52.716;6.696;2022-12-18T06:03:00;52.47;;;22.20;;
65691;SDS011;52411;52.716;6.696;2022-12-18T06:05:26;51.03;;;20.97;;
65691;SDS011;52411;52.716;6.696;2022-12-18T06:07:52;50.13;;;23.27;;
65691;SDS011;52411;52.716;6.696;2022-12-18T06:10:18;53.73;;;21.90;;
65691;SDS011;52411;52.716;6.696;2022-12-18T06:12:44;46.87;;;19.67;;
65691;SDS011;52411;52.716;6.696;2022-12-18T06:15:09;49.33;;;20.20;;
65691;SDS011;52411;52.716;6.696;2022-12-18T06:17:35;49.00;;;19.40;;
65691;SDS011;52411;52.716;6.696;2022-12-18T06:20:01;44.97;;;18.80;;
65691;SDS011;52411;52.716;6.696;2022-12-18T06:22:28;53.53;;;20.10;;
65691;SDS011;52411;52.716;6.696;2022-12-18T06:24:56;45.73;;;19.60;;
65691;SDS011;52411;52.716;6.696;2022-12-18T06:27:22;47.23;;;19.57;;
65691;SDS011;52411;52.716;6.696;2022-12-18T06:29:47;53.37;;;19.13;;
65691;SDS011;52411;52.716;6.696;2022-12-18T06:32:13;50.80;;;20.07;;
65691;SDS011;52411;52.716;6.696;2022-12-18T06:34:39;49.33;;;19.90;;
65691;SDS011;52411;52.716;6.696;2022-12-18T06:37:04;46.90;;;19.33;;
65691;SDS011;52411;52.716;6.696;2022-12-18T06:39:30;44.77;;;20.67;;
65691;SDS011;52411;52.716;6.696;2022-12-18T06:41:56;45.13;;;20.33;;
65691;SDS011;52411;52.716;6.696;2022-12-18T06:44:21;54.20;;;20.73;;
65691;SDS011;52411;52.716;6.696;2022-12-18T06:46:47;50.80;;;20.63;;
65691;SDS011;52411;52.716;6.696;2022-12-18T06:49:12;55.63;;;20.57;;
65691;SDS011;52411;52.716;6.696;2022-12-18T06:51:38;41.73;;;19.47;;
65691;SDS011;52411;52.716;6.696;2022-12-18T06:54:04;45.23;;;19.57;;
65691;SDS011;52411;52.716;6.696;2022-12-18T06:56:29;48.67;;;18.63;;
65691;SDS011;52411;52.716;6.696;2022-12-18T06:58:55;51.33;;;20.53;;
65691;SDS011;52411;52.716;6.696;2022-12-18T07:01:21;48.23;;;19.03;;
65691;SDS011;52411;52.716;6.696;2022-12-18T07:03:51;45.60;;;18.67;;
65691;SDS011;52411;52.716;6.696;2022-12-18T07:06:22;45.20;;;19.00;;
65691;SDS011;52411;52.716;6.696;2022-12-18T07:08:49;50.93;;;20.17;;
65691;SDS011;52411;52.716;6.696;2022-12-18T07:11:16;59.47;;;18.37;;
65691;SDS011;52411;52.716;6.696;2022-12-18T07:13:43;48.63;;;18.77;;
65691;SDS011;52411;52.716;6.696;2022-12-18T07:16:13;43.07;;;18.23;;
65691;SDS011;52411;52.716;6.696;2022-12-18T07:18:40;46.93;;;20.33;;
65691;SDS011;52411;52.716;6.696;2022-12-18T07:21:06;50.83;;;20.13;;
65691;SDS011;52411;52.716;6.696;2022-12-18T07:23:34;46.13;;;17.93;;
65691;SDS011;52411;52.716;6.696;2022-12-18T07:26:04;40.73;;;19.03;;
65691;SDS011;52411;52.716;6.696;2022-12-18T07:28:31;41.43;;;18.10;;
65691;SDS011;52411;52.716;6.696;2022-12-18T07:30:58;46.80;;;18.97;;
65691;SDS011;52411;52.716;6.696;2022-12-18T07:33:27;48.17;;;20.03;;
65691;SDS011;52411;52.716;6.696;2022-12-18T07:35:53;41.57;;;18.00;;
65691;SDS011;52411;52.716;6.696;2022-12-18T07:38:18;43.87;;;18.57;;
65691;SDS011;52411;52.716;6.696;2022-12-18T07:40:44;44.03;;;18.90;;
65691;SDS011;52411;52.716;6.696;2022-12-18T07:43:09;44.53;;;18.67;;
65691;SDS011;52411;52.716;6.696;2022-12-18T07:45:35;41.10;;;18.43;;
65691;SDS011;52411;52.716;6.696;2022-12-18T07:48:01;46.20;;;19.43;;
65691;SDS011;52411;52.716;6.696;2022-12-18T07:50:26;47.20;;;19.80;;
65691;SDS011;52411;52.716;6.696;2022-12-18T07:52:52;46.87;;;19.60;;
65691;SDS011;52411;52.716;6.696;2022-12-18T07:55:17;40.80;;;18.17;;
65691;SDS011;52411;52.716;6.696;2022-12-18T07:57:43;43.30;;;19.60;;
65691;SDS011;52411;52.716;6.696;2022-12-18T08:00:09;40.67;;;19.20;;
65691;SDS011;52411;52.716;6.696;2022-12-18T08:02:47;45.10;;;19.30;;
65691;SDS011;52411;52.716;6.696;2022-12-18T08:05:13;45.27;;;19.23;;
65691;SDS011;52411;52.716;6.696;2022-12-18T08:07:39;43.53;;;19.10;;
65691;SDS011;52411;52.716;6.696;2022-12-18T08:10:05;47.27;;;19.03;;
65691;SDS011;52411;52.716;6.696;2022-12-18T08:12:31;45.53;;;18.83;;
65691;SDS011;52411;52.716;6.696;2022-12-18T08:14:56;48.73;;;20.23;;
65691;SDS011;52411;52.716;6.696;2022-12-18T08:17:22;44.40;;;17.60;;
65691;SDS011;52411;52.716;6.696;2022-12-18T08:19:48;44.07;;;18.80;;
65691;SDS011;52411;52.716;6.696;2022-12-18T08:22:13;42.43;;;17.60;;
65691;SDS011;52411;52.716;6.696;2022-12-18T08:24:39;36.50;;;17.40;;
65691;SDS011;52411;52.716;6.696;2022-12-18T08:30:11;43.47;;;18.60;;
65691;SDS011;52411;52.716;6.696;2022-12-18T08:32:37;41.70;;;17.30;;
65691;SDS011;52411;52.716;6.696;2022-12-18T08:35:03;43.83;;;18.57;;
65691;SDS011;52411;52.716;6.696;2022-12-18T08:37:29;38.23;;;17.23;;
65691;SDS011;52411;52.716;6.696;2022-12-18T08:39:54;39.78;;;16.80;;
65691;SDS011;52411;52.716;6.696;2022-12-18T08:42:20;41.77;;;17.17;;
65691;SDS011;52411;52.716;6.696;2022-12-18T08:45:04;42.88;;;17.80;;
65691;SDS011;52411;52.716;6.696;2022-12-18T08:47:30;38.13;;;18.17;;
65691;SDS011;52411;52.716;6.696;2022-12-18T08:49:56;40.35;;;17.88;;
65691;SDS011;52411;52.716;6.696;2022-12-18T08:52:21;41.53;;;18.00;;
65691;SDS011;52411;52.716;6.696;2022-12-18T08:57:24;39.88;;;18.73;;
65691;SDS011;52411;52.716;6.696;2022-12-18T08:59:49;37.83;;;17.48;;
65691;SDS011;52411;52.716;6.696;2022-12-18T09:02:15;38.88;;;17.95;;
65691;SDS011;52411;52.716;6.696;2022-12-18T09:04:41;37.67;;;17.63;;
65691;SDS011;52411;52.716;6.696;2022-12-18T09:07:06;40.78;;;17.48;;
65691;SDS011;52411;52.716;6.696;2022-12-18T09:09:32;36.42;;;16.67;;
65691;SDS011;52411;52.716;6.696;2022-12-18T09:11:57;38.72;;;17.45;;
65691;SDS011;52411;52.716;6.696;2022-12-18T09:14:23;35.00;;;16.60;;
65691;SDS011;52411;52.716;6.696;2022-12-18T09:16:49;39.20;;;17.02;;
65691;SDS011;52411;52.716;6.696;2022-12-18T09:19:14;36.08;;;16.92;;
65691;SDS011;52411;52.716;6.696;2022-12-18T09:24:23;31.08;;;15.85;;
65691;SDS011;52411;52.716;6.696;2022-12-18T09:26:52;36.63;;;16.95;;
65691;SDS011;52411;52.716;6.696;2022-12-18T09:29:19;30.58;;;15.23;;
65691;SDS011;52411;52.716;6.696;2022-12-18T09:31:45;32.95;;;15.23;;
65691;SDS011;52411;52.716;6.696;2022-12-18T09:34:12;32.85;;;15.93;;
65691;SDS011;52411;52.716;6.696;2022-12-18T09:36:37;34.00;;;15.27;;
65691;SDS011;52411;52.716;6.696;2022-12-18T09:39:03;31.05;;;14.45;;
65691;SDS011;52411;52.716;6.696;2022-12-18T09:50:04;30.67;;;14.27;;
65691;SDS011;52411;52.716;6.696;2022-12-18T09:52:45;30.55;;;13.98;;
65691;SDS011;52411;52.716;6.696;2022-12-18T09:55:22;30.35;;;13.85;;
65691;SDS011;52411;52.716;6.696;2022-12-18T09:57:52;27.83;;;13.65;;
65691;SDS011;52411;52.716;6.696;2022-12-18T10:00:30;28.00;;;13.60;;
65691;SDS011;52411;52.716;6.696;2022-12-18T10:02:59;25.95;;;13.18;;
65691;SDS011;52411;52.716;6.696;2022-12-18T10:08:40;22.92;;;11.63;;
65691;SDS011;52411;52.716;6.696;2022-12-18T10:16:35;25.52;;;12.70;;
65691;SDS011;52411;52.716;6.696;2022-12-18T10:24:34;25.85;;;12.40;;
65691;SDS011;52411;52.716;6.696;2022-12-18T10:27:09;24.02;;;12.75;;
65691;SDS011;52411;52.716;6.696;2022-12-18T10:29:39;24.20;;;11.80;;
65691;SDS011;52411;52.716;6.696;2022-12-18T10:32:07;25.52;;;12.93;;
65691;SDS011;52411;52.716;6.696;2022-12-18T10:34:38;29.25;;;13.32;;
65691;SDS011;52411;52.716;6.696;2022-12-18T10:37:26;22.02;;;11.57;;
65691;SDS011;52411;52.716;6.696;2022-12-18T10:42:36;25.38;;;11.93;;
65691;SDS011;52411;52.716;6.696;2022-12-18T10:45:12;21.05;;;10.80;;
65691;SDS011;52411;52.716;6.696;2022-12-18T10:47:46;23.92;;;10.55;;
65691;SDS011;52411;52.716;6.696;2022-12-18T10:50:24;23.08;;;11.82;;
65691;SDS011;52411;52.716;6.696;2022-12-18T10:52:58;18.58;;;10.20;;
65691;SDS011;52411;52.716;6.696;2022-12-18T10:55:27;20.08;;;10.63;;
65691;SDS011;52411;52.716;6.696;2022-12-18T10:58:20;20.10;;;10.07;;
65691;SDS011;52411;52.716;6.696;2022-12-18T11:06:22;18.35;;;9.25;;
65691;SDS011;52411;52.716;6.696;2022-12-18T11:12:04;18.02;;;8.93;;
65691;SDS011;52411;52.716;6.696;2022-12-18T11:14:46;15.35;;;7.63;;
65691;SDS011;52411;52.716;6.696;2022-12-18T11:17:47;13.63;;;8.07;;
65691;SDS011;52411;52.716;6.696;2022-12-18T11:20:09;14.57;;;7.88;;
65691;SDS011;52411;52.716;6.696;2022-12-18T11:22:59;13.60;;;7.63;;
65691;SDS011;52411;52.716;6.696;2022-12-18T11:25:37;13.77;;;8.18;;
65691;SDS011;52411;52.716;6.696;2022-12-18T11:30:40;13.27;;;7.45;;
65691;SDS011;52411;52.716;6.696;2022-12-18T11:33:10;14.95;;;7.53;;
65691;SDS011;52411;52.716;6.696;2022-12-18T11:38:18;14.43;;;7.35;;
65691;SDS011;52411;52.716;6.696;2022-12-18T11:41:34;13.13;;;7.22;;
65691;SDS011;52411;52.716;6.696;2022-12-18T11:43:58;12.90;;;6.82;;
65691;SDS011;52411;52.716;6.696;2022-12-18T11:46:32;12.88;;;7.30;;
65691;SDS011;52411;52.716;6.696;2022-12-18T11:49:03;12.32;;;6.88;;
65691;SDS011;52411;52.716;6.696;2022-12-18T11:52:00;13.43;;;7.50;;
65691;SDS011;52411;52.716;6.696;2022-12-18T11:57:20;14.02;;;7.57;;
65691;SDS011;52411;52.716;6.696;2022-12-18T12:05:25;16.02;;;7.78;;
65691;SDS011;52411;52.716;6.696;2022-12-18T12:08:07;12.77;;;7.13;;
65691;SDS011;52411;52.716;6.696;2022-12-18T12:16:17;12.38;;;6.97;;
65691;SDS011;52411;52.716;6.696;2022-12-18T12:26:52;16.15;;;7.80;;
65691;SDS011;52411;52.716;6.696;2022-12-18T12:29:43;14.13;;;7.47;;
65691;SDS011;52411;52.716;6.696;2022-12-18T12:32:45;13.70;;;6.80;;
65691;SDS011;52411;52.716;6.696;2022-12-18T12:35:34;13.00;;;7.13;;
65691;SDS011;52411;52.716;6.696;2022-12-18T12:38:10;14.30;;;7.85;;
65691;SDS011;52411;52.716;6.696;2022-12-18T12:40:51;13.95;;;7.15;;
65691;SDS011;52411;52.716;6.696;2022-12-18T12:46:05;13.23;;;7.20;;
65691;SDS011;52411;52.716;6.696;2022-12-18T12:51:01;14.80;;;7.72;;
65691;SDS011;52411;52.716;6.696;2022-12-18T12:53:34;14.98;;;8.82;;
65691;SDS011;52411;52.716;6.696;2022-12-18T12:56:03;14.75;;;7.90;;
65691;SDS011;52411;52.716;6.696;2022-12-18T13:12:15;16.63;;;8.38;;
65691;SDS011;52411;52.716;6.696;2022-12-18T13:15:20;15.88;;;7.63;;
65691;SDS011;52411;52.716;6.696;2022-12-18T13:20:35;15.15;;;8.10;;
65691;SDS011;52411;52.716;6.696;2022-12-18T13:25:57;16.52;;;8.68;;
65691;SDS011;52411;52.716;6.696;2022-12-18T13:38:01;13.60;;;7.68;;
65691;SDS011;52411;52.716;6.696;2022-12-18T13:40:20;15.98;;;8.25;;
65691;SDS011;52411;52.716;6.696;2022-12-18T13:48:19;14.40;;;8.00;;
65691;SDS011;52411;52.716;6.696;2022-12-18T13:50:53;15.27;;;8.30;;
65691;SDS011;52411;52.716;6.696;2022-12-18T13:53:26;12.88;;;7.40;;
65691;SDS011;52411;52.716;6.696;2022-12-18T13:55:54;15.70;;;8.43;;
65691;SDS011;52411;52.716;6.696;2022-12-18T13:58:20;16.33;;;8.63;;
65691;SDS011;52411;52.716;6.696;2022-12-18T14:00:45;16.50;;;9.40;;
65691;SDS011;52411;52.716;6.696;2022-12-18T14:03:24;16.17;;;8.07;;
65691;SDS011;52411;52.716;6.696;2022-12-18T14:05:56;17.58;;;8.90;;
65691;SDS011;52411;52.716;6.696;2022-12-18T14:08:24;16.73;;;8.95;;
65691;SDS011;52411;52.716;6.696;2022-12-18T14:10:55;18.23;;;8.57;;
65691;SDS011;52411;52.716;6.696;2022-12-18T14:13:26;16.33;;;9.30;;
65691;SDS011;52411;52.716;6.696;2022-12-18T14:15:56;15.68;;;8.73;;
65691;SDS011;52411;52.716;6.696;2022-12-18T14:18:26;16.08;;;8.00;;
65691;SDS011;52411;52.716;6.696;2022-12-18T14:21:25;18.50;;;9.70;;
65691;SDS011;52411;52.716;6.696;2022-12-18T14:29:19;17.13;;;8.80;;
65691;SDS011;52411;52.716;6.696;2022-12-18T14:37:18;16.77;;;8.82;;
65691;SDS011;52411;52.716;6.696;2022-12-18T14:42:22;19.38;;;9.65;;
65691;SDS011;52411;52.716;6.696;2022-12-18T14:45:17;17.50;;;9.48;;
65691;SDS011;52411;52.716;6.696;2022-12-18T14:47:56;18.45;;;9.60;;
65691;SDS011;52411;52.716;6.696;2022-12-18T14:50:24;18.17;;;10.05;;
65691;SDS011;52411;52.716;6.696;2022-12-18T14:53:02;21.27;;;9.50;;
65691;SDS011;52411;52.716;6.696;2022-12-18T14:55:28;18.77;;;10.35;;
65691;SDS011;52411;52.716;6.696;2022-12-18T14:57:54;19.98;;;10.27;;
65691;SDS011;52411;52.716;6.696;2022-12-18T15:00:22;20.85;;;11.70;;
65691;SDS011;52411;52.716;6.696;2022-12-18T15:02:55;22.40;;;10.82;;
65691;SDS011;52411;52.716;6.696;2022-12-18T15:05:26;22.02;;;11.45;;
65691;SDS011;52411;52.716;6.696;2022-12-18T15:10:28;20.17;;;10.52;;
65691;SDS011;52411;52.716;6.696;2022-12-18T15:18:03;22.42;;;11.98;;
65691;SDS011;52411;52.716;6.696;2022-12-18T15:20:51;20.38;;;11.40;;
65691;SDS011;52411;52.716;6.696;2022-12-18T15:23:45;22.75;;;11.88;;
65691;SDS011;52411;52.716;6.696;2022-12-18T15:26:15;22.42;;;11.35;;
65691;SDS011;52411;52.716;6.696;2022-12-18T15:28:46;21.60;;;11.27;;
65691;SDS011;52411;52.716;6.696;2022-12-18T15:33:41;22.48;;;12.07;;
65691;SDS011;52411;52.716;6.696;2022-12-18T15:36:14;22.58;;;12.48;;
65691;SDS011;52411;52.716;6.696;2022-12-18T15:38:43;22.48;;;11.80;;
65691;SDS011;52411;52.716;6.696;2022-12-18T15:41:15;24.92;;;12.32;;
65691;SDS011;52411;52.716;6.696;2022-12-18T15:43:42;23.35;;;12.15;;
65691;SDS011;52411;52.716;6.696;2022-12-18T15:46:12;24.88;;;12.45;;
65691;SDS011;52411;52.716;6.696;2022-12-18T15:48:43;22.38;;;12.50;;
65691;SDS011;52411;52.716;6.696;2022-12-18T15:54:13;27.30;;;12.95;;
65691;SDS011;52411;52.716;6.696;2022-12-18T15:56:41;27.73;;;12.90;;
65691;SDS011;52411;52.716;6.696;2022-12-18T15:59:25;25.77;;;13.45;;
65691;SDS011;52411;52.716;6.696;2022-12-18T16:01:51;25.90;;;13.20;;
65691;SDS011;52411;52.716;6.696;2022-12-18T16:04:19;28.58;;;13.85;;
65691;SDS011;52411;52.716;6.696;2022-12-18T16:06:45;24.83;;;13.40;;
65691;SDS011;52411;52.716;6.696;2022-12-18T16:09:11;25.40;;;13.80;;
65691;SDS011;52411;52.716;6.696;2022-12-18T16:11:38;24.67;;;13.75;;
65691;SDS011;52411;52.716;6.696;2022-12-18T16:14:20;27.23;;;13.70;;
65691;SDS011;52411;52.716;6.696;2022-12-18T16:16:49;24.30;;;13.77;;
65691;SDS011;52411;52.716;6.696;2022-12-18T16:19:16;26.98;;;13.75;;
65691;SDS011;52411;52.716;6.696;2022-12-18T16:21:42;25.40;;;13.40;;
65691;SDS011;52411;52.716;6.696;2022-12-18T16:24:13;25.17;;;13.98;;
65691;SDS011;52411;52.716;6.696;2022-12-18T16:26:47;24.48;;;12.93;;
65691;SDS011;52411;52.716;6.696;2022-12-18T16:29:13;24.73;;;13.73;;
65691;SDS011;52411;52.716;6.696;2022-12-18T16:31:39;29.10;;;14.20;;
65691;SDS011;52411;52.716;6.696;2022-12-18T16:34:24;22.90;;;12.27;;
65691;SDS011;52411;52.716;6.696;2022-12-18T16:36:56;26.15;;;13.85;;
65691;SDS011;52411;52.716;6.696;2022-12-18T16:39:24;28.05;;;14.50;;
65691;SDS011;52411;52.716;6.696;2022-12-18T16:41:50;29.30;;;14.38;;
65691;SDS011;52411;52.716;6.696;2022-12-18T16:44:16;26.95;;;14.63;;
65691;SDS011;52411;52.716;6.696;2022-12-18T16:46:42;24.42;;;13.52;;
65691;SDS011;52411;52.716;6.696;2022-12-18T16:49:10;24.67;;;13.15;;
65691;SDS011;52411;52.716;6.696;2022-12-18T16:51:37;24.70;;;13.48;;
65691;SDS011;52411;52.716;6.696;2022-12-18T16:54:02;25.20;;;13.95;;
65691;SDS011;52411;52.716;6.696;2022-12-18T16:56:29;25.83;;;13.10;;
65691;SDS011;52411;52.716;6.696;2022-12-18T16:58:55;25.80;;;13.82;;
65691;SDS011;52411;52.716;6.696;2022-12-18T17:01:23;23.27;;;13.13;;
65691;SDS011;52411;52.716;6.696;2022-12-18T17:03:53;23.92;;;13.23;;
65691;SDS011;52411;52.716;6.696;2022-12-18T17:06:20;24.88;;;13.43;;
65691;SDS011;52411;52.716;6.696;2022-12-18T17:08:46;30.00;;;13.20;;
65691;SDS011;52411;52.716;6.696;2022-12-18T17:11:12;28.98;;;14.10;;
65691;SDS011;52411;52.716;6.696;2022-12-18T17:13:38;23.48;;;12.55;;
65691;SDS011;52411;52.716;6.696;2022-12-18T17:16:07;27.17;;;13.50;;
65691;SDS011;52411;52.716;6.696;2022-12-18T17:18:34;27.15;;;13.38;;